sensor_id;sensor_type;location;lat;lon;timestamp;P1;durP1;ratioP1;P2;durP2;ratioP2
22673;SDS011;11504;43.334;21.918;2023-03-01T00:07:53;34.0;;;26.0;;
22673;SDS011;11504;43.334;21.918;2023-03-01T00:12:31;34.0;;;26.0;;
22673;SDS011;11504;43.334;21.918;2023-03-01T00:17:08;34.0;;;26.0;;
22673;SDS011;11504;43.334;21.918;2023-03-01T00:21:46;34.0;;;26.0;;
22673;SDS011;11504;43.334;21.918;2023-03-01T00:26:26;36.0;;;27.0;;
22673;SDS011;11504;43.334;21.918;2023-03-01T00:31:08;36.0;;;27.0;;
22673;SDS011;11504;43.334;21.918;2023-03-01T00:35:49;38.0;;;28.0;;
22673;SDS011;11504;43.334;21.918;2023-03-01T00:40:29;38.0;;;28.0;;
22673;SDS011;11504;43.334;21.918;2023-03-01T00:45:10;36.0;;;26.0;;
22673;SDS011;11504;43.334;21.918;2023-03-01T00:49:48;36.0;;;26.0;;
22673;SDS011;11504;43.334;21.918;2023-03-01T00:54:25;34.0;;;25.0;;
22673;SDS011;11504;43.334;21.918;2023-03-01T00:59:02;34.0;;;25.0;;
22673;SDS011;11504;43.334;21.918;2023-03-01T01:03:39;34.0;;;25.0;;
22673;SDS011;11504;43.334;21.918;2023-03-01T01:08:15;32.0;;;24.0;;
22673;SDS011;11504;43.334;21.918;2023-03-01T01:12:52;32.0;;;24.0;;
22673;SDS011;11504;43.334;21.918;2023-03-01T01:17:29;29.0;;;24.0;;
22673;SDS011;11504;43.334;21.918;2023-03-01T01:22:07;29.0;;;24.0;;
22673;SDS011;11504;43.334;21.918;2023-03-01T01:26:45;29.0;;;23.0;;
22673;SDS011;11504;43.334;21.918;2023-03-01T01:31:27;29.0;;;23.0;;
22673;SDS011;11504;43.334;21.918;2023-03-01T01:36:08;29.0;;;22.0;;
22673;SDS011;11504;43.334;21.918;2023-03-01T01:40:46;29.0;;;22.0;;
22673;SDS011;11504;43.334;21.918;2023-03-01T01:45:34;29.0;;;22.0;;
22673;SDS011;11504;43.334;21.918;2023-03-01T01:50:19;29.0;;;22.0;;
22673;SDS011;11504;43.334;21.918;2023-03-01T01:55:11;29.0;;;23.0;;
22673;SDS011;11504;43.334;21.918;2023-03-01T02:00:04;29.0;;;23.0;;
22673;SDS011;11504;43.334;21.918;2023-03-01T02:05:01;29.0;;;22.0;;
22673;SDS011;11504;43.334;21.918;2023-03-01T02:09:53;29.0;;;22.0;;
22673;SDS011;11504;43.334;21.918;2023-03-01T02:14:29;29.0;;;22.0;;
22673;SDS011;11504;43.334;21.918;2023-03-01T02:19:34;29.0;;;22.0;;
22673;SDS011;11504;43.334;21.918;2023-03-01T02:25:05;28.0;;;22.0;;
22673;SDS011;11504;43.334;21.918;2023-03-01T02:29:58;28.0;;;22.0;;
22673;SDS011;11504;43.334;21.918;2023-03-01T02:34:35;27.0;;;22.0;;
22673;SDS011;11504;43.334;21.918;2023-03-01T02:39:26;27.0;;;22.0;;
22673;SDS011;11504;43.334;21.918;2023-03-01T02:44:05;23.0;;;20.0;;
22673;SDS011;11504;43.334;21.918;2023-03-01T02:48:51;23.0;;;20.0;;
22673;SDS011;11504;43.334;21.918;2023-03-01T02:54:02;19.0;;;17.0;;
22673;SDS011;11504;43.334;21.918;2023-03-01T02:58:47;19.0;;;17.0;;
22673;SDS011;11504;43.334;21.918;2023-03-01T03:03:25;19.0;;;17.0;;
22673;SDS011;11504;43.334;21.918;2023-03-01T03:08:04;20.0;;;18.0;;
22673;SDS011;11504;43.334;21.918;2023-03-01T03:12:42;20.0;;;18.0;;
22673;SDS011;11504;43.334;21.918;2023-03-01T03:17:19;21.0;;;18.0;;
22673;SDS011;11504;43.334;21.918;2023-03-01T03:21:56;21.0;;;18.0;;
22673;SDS011;11504;43.334;21.918;2023-03-01T03:26:33;20.0;;;17.0;;
22673;SDS011;11504;43.334;21.918;2023-03-01T03:31:10;20.0;;;17.0;;
22673;SDS011;11504;43.334;21.918;2023-03-01T03:35:50;18.0;;;16.0;;
22673;SDS011;11504;43.334;21.918;2023-03-01T03:40:36;18.0;;;16.0;;
22673;SDS011;11504;43.334;21.918;2023-03-01T03:45:19;16.0;;;14.0;;
22673;SDS011;11504;43.334;21.918;2023-03-01T03:49:55;16.0;;;14.0;;
22673;SDS011;11504;43.334;21.918;2023-03-01T03:54:32;14.0;;;11.0;;
22673;SDS011;11504;43.334;21.918;2023-03-01T03:59:09;14.0;;;11.0;;
22673;SDS011;11504;43.334;21.918;2023-03-01T04:03:46;14.0;;;11.0;;
22673;SDS011;11504;43.334;21.918;2023-03-01T04:08:24;14.0;;;12.0;;
22673;SDS011;11504;43.334;21.918;2023-03-01T04:13:02;14.0;;;12.0;;
22673;SDS011;11504;43.334;21.918;2023-03-01T04:17:39;15.0;;;13.0;;
22673;SDS011;11504;43.334;21.918;2023-03-01T04:22:16;15.0;;;13.0;;
22673;SDS011;11504;43.334;21.918;2023-03-01T04:26:52;16.0;;;13.0;;
22673;SDS011;11504;43.334;21.918;2023-03-01T04:31:29;16.0;;;13.0;;
22673;SDS011;11504;43.334;21.918;2023-03-01T04:36:08;17.0;;;13.0;;
22673;SDS011;11504;43.334;21.918;2023-03-01T04:40:48;17.0;;;13.0;;
22673;SDS011;11504;43.334;21.918;2023-03-01T04:45:25;18.0;;;14.0;;
22673;SDS011;11504;43.334;21.918;2023-03-01T04:50:01;18.0;;;14.0;;
22673;SDS011;11504;43.334;21.918;2023-03-01T04:54:38;19.0;;;15.0;;
22673;SDS011;11504;43.334;21.918;2023-03-01T04:59:14;19.0;;;15.0;;
22673;SDS011;11504;43.334;21.918;2023-03-01T05:03:52;19.0;;;15.0;;
22673;SDS011;11504;43.334;21.918;2023-03-01T05:08:29;18.0;;;15.0;;
22673;SDS011;11504;43.334;21.918;2023-03-01T05:13:05;18.0;;;15.0;;
22673;SDS011;11504;43.334;21.918;2023-03-01T05:17:42;17.0;;;15.0;;
22673;SDS011;11504;43.334;21.918;2023-03-01T05:22:18;17.0;;;15.0;;
22673;SDS011;11504;43.334;21.918;2023-03-01T05:26:55;17.0;;;14.0;;
22673;SDS011;11504;43.334;21.918;2023-03-01T05:31:31;17.0;;;14.0;;
22673;SDS011;11504;43.334;21.918;2023-03-01T05:36:10;17.0;;;14.0;;
22673;SDS011;11504;43.334;21.918;2023-03-01T05:40:49;17.0;;;14.0;;
22673;SDS011;11504;43.334;21.918;2023-03-01T05:45:27;22.0;;;16.0;;
22673;SDS011;11504;43.334;21.918;2023-03-01T05:50:05;22.0;;;16.0;;
22673;SDS011;11504;43.334;21.918;2023-03-01T05:54:42;26.0;;;19.0;;
22673;SDS011;11504;43.334;21.918;2023-03-01T05:59:18;26.0;;;19.0;;
22673;SDS011;11504;43.334;21.918;2023-03-01T06:03:56;26.0;;;19.0;;
22673;SDS011;11504;43.334;21.918;2023-03-01T06:08:33;26.0;;;19.0;;
22673;SDS011;11504;43.334;21.918;2023-03-01T06:13:10;26.0;;;19.0;;
22673;SDS011;11504;43.334;21.918;2023-03-01T06:17:48;25.0;;;19.0;;
22673;SDS011;11504;43.334;21.918;2023-03-01T06:22:25;25.0;;;19.0;;
22673;SDS011;11504;43.334;21.918;2023-03-01T06:27:03;22.0;;;17.0;;
22673;SDS011;11504;43.334;21.918;2023-03-01T06:31:40;22.0;;;17.0;;
22673;SDS011;11504;43.334;21.918;2023-03-01T06:36:17;18.0;;;15.0;;
22673;SDS011;11504;43.334;21.918;2023-03-01T06:40:55;18.0;;;15.0;;
22673;SDS011;11504;43.334;21.918;2023-03-01T06:45:32;17.0;;;15.0;;
22673;SDS011;11504;43.334;21.918;2023-03-01T06:50:13;17.0;;;15.0;;
22673;SDS011;11504;43.334;21.918;2023-03-01T06:54:50;16.0;;;15.0;;
22673;SDS011;11504;43.334;21.918;2023-03-01T06:59:26;16.0;;;15.0;;
22673;SDS011;11504;43.334;21.918;2023-03-01T07:04:03;16.0;;;15.0;;
22673;SDS011;11504;43.334;21.918;2023-03-01T07:08:40;14.0;;;13.0;;
22673;SDS011;11504;43.334;21.918;2023-03-01T07:13:16;14.0;;;13.0;;
22673;SDS011;11504;43.334;21.918;2023-03-01T07:17:52;13.0;;;11.0;;
22673;SDS011;11504;43.334;21.918;2023-03-01T07:22:29;13.0;;;11.0;;
22673;SDS011;11504;43.334;21.918;2023-03-01T07:27:05;15.0;;;12.0;;
22673;SDS011;11504;43.334;21.918;2023-03-01T07:31:41;15.0;;;12.0;;
22673;SDS011;11504;43.334;21.918;2023-03-01T07:36:18;17.0;;;14.0;;
22673;SDS011;11504;43.334;21.918;2023-03-01T07:41:02;17.0;;;14.0;;
22673;SDS011;11504;43.334;21.918;2023-03-01T07:45:39;16.0;;;14.0;;
22673;SDS011;11504;43.334;21.918;2023-03-01T07:50:16;16.0;;;14.0;;
22673;SDS011;11504;43.334;21.918;2023-03-01T07:54:53;14.0;;;13.0;;
22673;SDS011;11504;43.334;21.918;2023-03-01T07:59:29;14.0;;;13.0;;
22673;SDS011;11504;43.334;21.918;2023-03-01T08:04:08;14.0;;;13.0;;
22673;SDS011;11504;43.334;21.918;2023-03-01T08:08:46;13.0;;;12.0;;
22673;SDS011;11504;43.334;21.918;2023-03-01T08:13:23;13.0;;;12.0;;
22673;SDS011;11504;43.334;21.918;2023-03-01T08:18:00;12.0;;;11.0;;
22673;SDS011;11504;43.334;21.918;2023-03-01T08:22:36;12.0;;;11.0;;
22673;SDS011;11504;43.334;21.918;2023-03-01T08:27:16;8.0;;;8.0;;
22673;SDS011;11504;43.334;21.918;2023-03-01T08:31:53;8.0;;;8.0;;
22673;SDS011;11504;43.334;21.918;2023-03-01T08:36:38;5.0;;;5.0;;
22673;SDS011;11504;43.334;21.918;2023-03-01T08:41:18;5.0;;;5.0;;
22673;SDS011;11504;43.334;21.918;2023-03-01T08:45:56;6.0;;;5.0;;
22673;SDS011;11504;43.334;21.918;2023-03-01T08:50:32;6.0;;;5.0;;
22673;SDS011;11504;43.334;21.918;2023-03-01T08:55:10;6.0;;;5.0;;
22673;SDS011;11504;43.334;21.918;2023-03-01T08:59:47;6.0;;;5.0;;
22673;SDS011;11504;43.334;21.918;2023-03-01T09:04:24;6.0;;;6.0;;
22673;SDS011;11504;43.334;21.918;2023-03-01T09:09:05;6.0;;;6.0;;
22673;SDS011;11504;43.334;21.918;2023-03-01T09:13:52;6.0;;;6.0;;
22673;SDS011;11504;43.334;21.918;2023-03-01T09:18:30;7.0;;;6.0;;
22673;SDS011;11504;43.334;21.918;2023-03-01T09:23:07;7.0;;;6.0;;
22673;SDS011;11504;43.334;21.918;2023-03-01T09:27:44;6.0;;;6.0;;
22673;SDS011;11504;43.334;21.918;2023-03-01T09:32:21;6.0;;;6.0;;
22673;SDS011;11504;43.334;21.918;2023-03-01T09:36:58;6.0;;;6.0;;
22673;SDS011;11504;43.334;21.918;2023-03-01T09:41:58;6.0;;;6.0;;
22673;SDS011;11504;43.334;21.918;2023-03-01T09:46:45;6.0;;;6.0;;
22673;SDS011;11504;43.334;21.918;2023-03-01T09:51:35;6.0;;;6.0;;
22673;SDS011;11504;43.334;21.918;2023-03-01T09:56:32;6.0;;;6.0;;
22673;SDS011;11504;43.334;21.918;2023-03-01T10:01:35;6.0;;;6.0;;
22673;SDS011;11504;43.334;21.918;2023-03-01T10:06:23;6.0;;;6.0;;
22673;SDS011;11504;43.334;21.918;2023-03-01T10:11:00;6.0;;;6.0;;
22673;SDS011;11504;43.334;21.918;2023-03-01T11:08:44;6.0;;;6.0;;
22673;SDS011;11504;43.334;21.918;2023-03-01T11:13:22;6.0;;;6.0;;
22673;SDS011;11504;43.334;21.918;2023-03-01T11:17:59;6.0;;;6.0;;
22673;SDS011;11504;43.334;21.918;2023-03-01T11:22:36;6.0;;;6.0;;
22673;SDS011;11504;43.334;21.918;2023-03-01T11:27:32;6.0;;;6.0;;
22673;SDS011;11504;43.334;21.918;2023-03-01T11:32:34;6.0;;;6.0;;
22673;SDS011;11504;43.334;21.918;2023-03-01T11:37:57;6.0;;;5.0;;
22673;SDS011;11504;43.334;21.918;2023-03-01T11:43:26;6.0;;;5.0;;
22673;SDS011;11504;43.334;21.918;2023-03-01T11:49:20;6.0;;;5.0;;
22673;SDS011;11504;43.334;21.918;2023-03-01T12:28:51;8.0;;;7.0;;
22673;SDS011;11504;43.334;21.918;2023-03-01T12:34:03;8.0;;;7.0;;
22673;SDS011;11504;43.334;21.918;2023-03-01T12:39:42;8.0;;;7.0;;
22673;SDS011;11504;43.334;21.918;2023-03-01T12:45:34;8.0;;;7.0;;
22673;SDS011;11504;43.334;21.918;2023-03-01T12:50:47;8.0;;;7.0;;
22673;SDS011;11504;43.334;21.918;2023-03-01T13:06:11;9.0;;;8.0;;
22673;SDS011;11504;43.334;21.918;2023-03-01T13:11:21;9.0;;;8.0;;
22673;SDS011;11504;43.334;21.918;2023-03-01T13:16:43;9.0;;;8.0;;
22673;SDS011;11504;43.334;21.918;2023-03-01T13:21:31;9.0;;;8.0;;
22673;SDS011;11504;43.334;21.918;2023-03-01T13:26:17;8.0;;;8.0;;
22673;SDS011;11504;43.334;21.918;2023-03-01T13:30:54;8.0;;;8.0;;
22673;SDS011;11504;43.334;21.918;2023-03-01T13:35:46;8.0;;;8.0;;
22673;SDS011;11504;43.334;21.918;2023-03-01T13:42:45;8.0;;;8.0;;
22673;SDS011;11504;43.334;21.918;2023-03-01T13:47:24;8.0;;;8.0;;
22673;SDS011;11504;43.334;21.918;2023-03-01T13:52:34;8.0;;;8.0;;
22673;SDS011;11504;43.334;21.918;2023-03-01T13:57:37;8.0;;;8.0;;
22673;SDS011;11504;43.334;21.918;2023-03-01T14:02:16;8.0;;;8.0;;
22673;SDS011;11504;43.334;21.918;2023-03-01T14:07:16;10.0;;;8.0;;
22673;SDS011;11504;43.334;21.918;2023-03-01T14:12:39;10.0;;;8.0;;
22673;SDS011;11504;43.334;21.918;2023-03-01T14:17:59;11.0;;;9.0;;
22673;SDS011;11504;43.334;21.918;2023-03-01T14:22:45;11.0;;;9.0;;
22673;SDS011;11504;43.334;21.918;2023-03-01T14:27:38;14.0;;;11.0;;
22673;SDS011;11504;43.334;21.918;2023-03-01T14:32:29;14.0;;;11.0;;
22673;SDS011;11504;43.334;21.918;2023-03-01T14:37:25;17.0;;;13.0;;
22673;SDS011;11504;43.334;21.918;2023-03-01T14:42:06;17.0;;;13.0;;
22673;SDS011;11504;43.334;21.918;2023-03-01T14:46:46;17.0;;;13.0;;
22673;SDS011;11504;43.334;21.918;2023-03-01T14:51:28;17.0;;;13.0;;
22673;SDS011;11504;43.334;21.918;2023-03-01T15:05:40;11.0;;;9.0;;
22673;SDS011;11504;43.334;21.918;2023-03-01T15:10:28;11.0;;;9.0;;
22673;SDS011;11504;43.334;21.918;2023-03-01T15:15:38;11.0;;;9.0;;
22673;SDS011;11504;43.334;21.918;2023-03-01T15:20:22;11.0;;;9.0;;
22673;SDS011;11504;43.334;21.918;2023-03-01T15:25:02;9.0;;;8.0;;
22673;SDS011;11504;43.334;21.918;2023-03-01T15:29:38;9.0;;;8.0;;
22673;SDS011;11504;43.334;21.918;2023-03-01T15:34:30;9.0;;;8.0;;
22673;SDS011;11504;43.334;21.918;2023-03-01T15:39:40;7.0;;;7.0;;
22673;SDS011;11504;43.334;21.918;2023-03-01T15:44:33;7.0;;;7.0;;
22673;SDS011;11504;43.334;21.918;2023-03-01T15:49:40;10.0;;;8.0;;
22673;SDS011;11504;43.334;21.918;2023-03-01T15:54:27;10.0;;;8.0;;
22673;SDS011;11504;43.334;21.918;2023-03-01T15:59:04;12.0;;;10.0;;
22673;SDS011;11504;43.334;21.918;2023-03-01T16:03:41;12.0;;;10.0;;
22673;SDS011;11504;43.334;21.918;2023-03-01T16:08:19;14.0;;;11.0;;
22673;SDS011;11504;43.334;21.918;2023-03-01T16:12:55;14.0;;;11.0;;
22673;SDS011;11504;43.334;21.918;2023-03-01T16:17:31;15.0;;;12.0;;
22673;SDS011;11504;43.334;21.918;2023-03-01T16:22:10;15.0;;;12.0;;
22673;SDS011;11504;43.334;21.918;2023-03-01T16:26:47;16.0;;;14.0;;
22673;SDS011;11504;43.334;21.918;2023-03-01T16:31:25;16.0;;;14.0;;
22673;SDS011;11504;43.334;21.918;2023-03-01T16:36:11;17.0;;;16.0;;
22673;SDS011;11504;43.334;21.918;2023-03-01T16:40:52;17.0;;;16.0;;
22673;SDS011;11504;43.334;21.918;2023-03-01T16:45:35;20.0;;;18.0;;
22673;SDS011;11504;43.334;21.918;2023-03-01T16:50:12;20.0;;;18.0;;
22673;SDS011;11504;43.334;21.918;2023-03-01T16:54:49;24.0;;;21.0;;
22673;SDS011;11504;43.334;21.918;2023-03-01T16:59:26;24.0;;;21.0;;
22673;SDS011;11504;43.334;21.918;2023-03-01T17:04:05;24.0;;;21.0;;
22673;SDS011;11504;43.334;21.918;2023-03-01T17:08:42;19.0;;;17.0;;
22673;SDS011;11504;43.334;21.918;2023-03-01T17:13:19;19.0;;;17.0;;
22673;SDS011;11504;43.334;21.918;2023-03-01T17:17:56;14.0;;;13.0;;
22673;SDS011;11504;43.334;21.918;2023-03-01T17:22:33;14.0;;;13.0;;
22673;SDS011;11504;43.334;21.918;2023-03-01T17:27:12;13.0;;;12.0;;
22673;SDS011;11504;43.334;21.918;2023-03-01T17:31:50;13.0;;;12.0;;
22673;SDS011;11504;43.334;21.918;2023-03-01T17:36:26;12.0;;;11.0;;
22673;SDS011;11504;43.334;21.918;2023-03-01T17:41:04;12.0;;;11.0;;
22673;SDS011;11504;43.334;21.918;2023-03-01T17:45:43;22.0;;;19.0;;
22673;SDS011;11504;43.334;21.918;2023-03-01T17:50:20;22.0;;;19.0;;
22673;SDS011;11504;43.334;21.918;2023-03-01T17:54:56;31.0;;;27.0;;
22673;SDS011;11504;43.334;21.918;2023-03-01T17:59:36;31.0;;;27.0;;
22673;SDS011;11504;43.334;21.918;2023-03-01T18:04:14;31.0;;;27.0;;
22673;SDS011;11504;43.334;21.918;2023-03-01T18:08:52;31.0;;;27.0;;
22673;SDS011;11504;43.334;21.918;2023-03-01T18:13:29;31.0;;;27.0;;
22673;SDS011;11504;43.334;21.918;2023-03-01T18:27:19;28.0;;;23.0;;
22673;SDS011;11504;43.334;21.918;2023-03-01T18:31:56;28.0;;;23.0;;
22673;SDS011;11504;43.334;21.918;2023-03-01T18:36:35;28.0;;;23.0;;
22673;SDS011;11504;43.334;21.918;2023-03-01T18:41:11;28.0;;;23.0;;
22673;SDS011;11504;43.334;21.918;2023-03-01T18:45:54;30.0;;;26.0;;
22673;SDS011;11504;43.334;21.918;2023-03-01T18:50:31;30.0;;;26.0;;
22673;SDS011;11504;43.334;21.918;2023-03-01T18:55:10;32.0;;;30.0;;
22673;SDS011;11504;43.334;21.918;2023-03-01T18:59:46;32.0;;;30.0;;
22673;SDS011;11504;43.334;21.918;2023-03-01T19:04:22;32.0;;;30.0;;
22673;SDS011;11504;43.334;21.918;2023-03-01T19:08:59;26.0;;;24.0;;
22673;SDS011;11504;43.334;21.918;2023-03-01T19:13:39;26.0;;;24.0;;
22673;SDS011;11504;43.334;21.918;2023-03-01T19:18:17;21.0;;;18.0;;
22673;SDS011;11504;43.334;21.918;2023-03-01T19:22:54;21.0;;;18.0;;
22673;SDS011;11504;43.334;21.918;2023-03-01T19:27:31;32.0;;;28.0;;
22673;SDS011;11504;43.334;21.918;2023-03-01T19:32:08;32.0;;;28.0;;
22673;SDS011;11504;43.334;21.918;2023-03-01T19:36:45;42.0;;;37.0;;
22673;SDS011;11504;43.334;21.918;2023-03-01T19:41:22;42.0;;;37.0;;
22673;SDS011;11504;43.334;21.918;2023-03-01T19:45:59;64.0;;;56.0;;
22673;SDS011;11504;43.334;21.918;2023-03-01T19:50:37;64.0;;;56.0;;
22673;SDS011;11504;43.334;21.918;2023-03-01T19:55:14;86.0;;;75.0;;
22673;SDS011;11504;43.334;21.918;2023-03-01T19:59:51;86.0;;;75.0;;
22673;SDS011;11504;43.334;21.918;2023-03-01T20:04:27;86.0;;;75.0;;
22673;SDS011;11504;43.334;21.918;2023-03-01T20:09:07;76.0;;;67.0;;
22673;SDS011;11504;43.334;21.918;2023-03-01T20:13:45;76.0;;;67.0;;
22673;SDS011;11504;43.334;21.918;2023-03-01T20:18:22;66.0;;;59.0;;
22673;SDS011;11504;43.334;21.918;2023-03-01T20:22:59;66.0;;;59.0;;
22673;SDS011;11504;43.334;21.918;2023-03-01T20:27:35;74.0;;;64.0;;
22673;SDS011;11504;43.334;21.918;2023-03-01T20:32:12;74.0;;;64.0;;
22673;SDS011;11504;43.334;21.918;2023-03-01T20:36:48;83.0;;;68.0;;
22673;SDS011;11504;43.334;21.918;2023-03-01T20:41:25;83.0;;;68.0;;
22673;SDS011;11504;43.334;21.918;2023-03-01T20:46:05;53.0;;;45.0;;
22673;SDS011;11504;43.334;21.918;2023-03-01T20:50:44;53.0;;;45.0;;
22673;SDS011;11504;43.334;21.918;2023-03-01T20:55:21;23.0;;;22.0;;
22673;SDS011;11504;43.334;21.918;2023-03-01T20:59:58;23.0;;;22.0;;
22673;SDS011;11504;43.334;21.918;2023-03-01T21:04:35;23.0;;;22.0;;
22673;SDS011;11504;43.334;21.918;2023-03-01T21:09:12;16.0;;;14.0;;
22673;SDS011;11504;43.334;21.918;2023-03-01T21:13:48;16.0;;;14.0;;
22673;SDS011;11504;43.334;21.918;2023-03-01T21:18:28;8.0;;;7.0;;
22673;SDS011;11504;43.334;21.918;2023-03-01T21:23:07;8.0;;;7.0;;
22673;SDS011;11504;43.334;21.918;2023-03-01T21:27:43;8.0;;;7.0;;
22673;SDS011;11504;43.334;21.918;2023-03-01T21:32:20;8.0;;;7.0;;
22673;SDS011;11504;43.334;21.918;2023-03-01T21:46:23;13.0;;;13.0;;
22673;SDS011;11504;43.334;21.918;2023-03-01T21:51:04;13.0;;;13.0;;
22673;SDS011;11504;43.334;21.918;2023-03-01T21:55:48;13.0;;;13.0;;
22673;SDS011;11504;43.334;21.918;2023-03-01T22:00:25;13.0;;;13.0;;
22673;SDS011;11504;43.334;21.918;2023-03-01T22:05:03;12.0;;;10.0;;
22673;SDS011;11504;43.334;21.918;2023-03-01T22:09:41;12.0;;;10.0;;
22673;SDS011;11504;43.334;21.918;2023-03-01T22:14:20;12.0;;;10.0;;
22673;SDS011;11504;43.334;21.918;2023-03-01T22:18:59;10.0;;;8.0;;
22673;SDS011;11504;43.334;21.918;2023-03-01T22:23:41;10.0;;;8.0;;
22673;SDS011;11504;43.334;21.918;2023-03-01T22:28:18;9.0;;;8.0;;
22673;SDS011;11504;43.334;21.918;2023-03-01T22:32:55;9.0;;;8.0;;
22673;SDS011;11504;43.334;21.918;2023-03-01T22:37:31;8.0;;;7.0;;
22673;SDS011;11504;43.334;21.918;2023-03-01T22:42:08;8.0;;;7.0;;
22673;SDS011;11504;43.334;21.918;2023-03-01T22:46:46;8.0;;;6.0;;
22673;SDS011;11504;43.334;21.918;2023-03-01T22:51:33;8.0;;;6.0;;
22673;SDS011;11504;43.334;21.918;2023-03-01T22:56:20;7.0;;;6.0;;
22673;SDS011;11504;43.334;21.918;2023-03-01T23:00:57;7.0;;;6.0;;
22673;SDS011;11504;43.334;21.918;2023-03-01T23:05:34;6.0;;;6.0;;
22673;SDS011;11504;43.334;21.918;2023-03-01T23:10:11;6.0;;;6.0;;
22673;SDS011;11504;43.334;21.918;2023-03-01T23:14:49;6.0;;;6.0;;
22673;SDS011;11504;43.334;21.918;2023-03-01T23:19:27;6.0;;;5.0;;
22673;SDS011;11504;43.334;21.918;2023-03-01T23:24:06;6.0;;;5.0;;
22673;SDS011;11504;43.334;21.918;2023-03-01T23:28:44;7.0;;;6.0;;
22673;SDS011;11504;43.334;21.918;2023-03-01T23:33:21;7.0;;;6.0;;
22673;SDS011;11504;43.334;21.918;2023-03-01T23:37:58;8.0;;;7.0;;
22673;SDS011;11504;43.334;21.918;2023-03-01T23:42:35;8.0;;;7.0;;
22673;SDS011;11504;43.334;21.918;2023-03-01T23:47:12;8.0;;;7.0;;
22673;SDS011;11504;43.334;21.918;2023-03-01T23:51:49;8.0;;;7.0;;
